createdAt,value
2023-02-25T00:01:13.171Z,75632.19
2023-02-25T00:03:41.619Z,75636.22
2023-02-25T00:06:13.610Z,75636.22
2023-02-25T00:08:45.592Z,75636.22
2023-02-25T00:11:14.355Z,75632.19
2023-02-25T00:13:42.638Z,75640.28
2023-02-25T00:16:11.028Z,75636.22
2023-02-25T00:18:41.025Z,75628.13
2023-02-25T00:21:09.770Z,75626.09
2023-02-25T00:23:37.045Z,75620.03
2023-02-25T00:26:06.824Z,75620.03
2023-02-25T00:28:34.186Z,75624.06
2023-02-25T00:31:13.247Z,75615.97
2023-02-25T00:33:42.204Z,75615.97
2023-02-25T00:36:12.980Z,75611.91
2023-02-25T00:38:40.347Z,75607.88
2023-02-25T00:41:11.937Z,75605.84
2023-02-25T00:43:44.353Z,75603.81
2023-02-25T00:46:11.975Z,75603.81
2023-02-25T00:48:39.774Z,75599.75
2023-02-25T00:51:11.794Z,75595.69
2023-02-25T00:53:39.855Z,75593.69
2023-02-25T00:56:08.713Z,75595.69
2023-02-25T00:58:36.981Z,75587.59
2023-02-25T01:01:07.029Z,75579.50
2023-02-25T01:03:33.914Z,75571.38
2023-02-25T01:06:03.044Z,75571.38
2023-02-25T01:08:30.310Z,75571.38
2023-02-25T01:10:57.525Z,75567.34
2023-02-25T01:13:24.408Z,75567.34
2023-02-25T01:15:51.777Z,75563.28
2023-02-25T01:18:20.704Z,75555.19
2023-02-25T01:20:47.914Z,75553.16
2023-02-25T01:23:15.044Z,75551.13
2023-02-25T01:25:42.397Z,75555.19
2023-02-25T01:28:09.359Z,75555.19
2023-02-25T01:30:38.261Z,75559.22
2023-02-25T01:33:05.366Z,75569.34
2023-02-25T01:35:32.740Z,75567.34
2023-02-25T01:38:00.134Z,75577.47
2023-02-25T01:40:27.371Z,75571.38
2023-02-25T01:42:54.584Z,75575.44
2023-02-25T01:45:27.111Z,75571.38
2023-02-25T01:48:05.587Z,75575.44
2023-02-25T01:51:02.821Z,75571.38
2023-02-25T01:53:42.853Z,75567.34
2023-02-25T01:56:13.551Z,75563.28
2023-02-25T01:58:41.078Z,75563.28
2023-02-25T02:01:14.391Z,75571.38
2023-02-25T02:03:42.039Z,75567.34
2023-02-25T02:06:21.435Z,75565.31
2023-02-25T02:08:49.606Z,75557.19
2023-02-25T02:11:17.553Z,75557.19
2023-02-25T02:13:49.903Z,75559.22
2023-02-25T02:16:32.131Z,75559.22
2023-02-25T02:19:12.379Z,75559.22
2023-02-25T02:21:50.933Z,75555.19
2023-02-25T02:24:29.176Z,75543.00
2023-02-25T02:27:23.375Z,75534.91
2023-02-25T02:29:56.054Z,75543.00
2023-02-25T02:32:35.224Z,75547.06
2023-02-25T02:35:23.842Z,75543.00
2023-02-25T02:38:09.931Z,75541.00
2023-02-25T02:41:21.713Z,75543.00
2023-02-25T02:43:57.701Z,75538.97
2023-02-25T02:46:34.236Z,75545.03
2023-02-25T02:49:34.596Z,75534.91
2023-02-25T02:52:16.101Z,75526.81
2023-02-25T02:54:49.582Z,75524.78
2023-02-25T02:57:19.800Z,75522.75
2023-02-25T03:00:04.292Z,75526.81
2023-02-25T03:02:36.801Z,75524.78
2023-02-25T03:05:09.897Z,75524.78
2023-02-25T03:07:43.133Z,75522.75
2023-02-25T03:10:16.978Z,75526.81
2023-02-25T03:12:43.884Z,75514.66
2023-02-25T03:15:11.425Z,75514.66
2023-02-25T03:17:46.250Z,75506.53
2023-02-25T03:20:24.056Z,75518.69
2023-02-25T03:22:53.387Z,75506.53
2023-02-25T03:25:47.803Z,75506.53
2023-02-25T03:28:30.722Z,75514.66
2023-02-25T03:31:23.120Z,75510.59
2023-02-25T03:33:56.492Z,75510.59
2023-02-25T03:36:49.222Z,75502.50
2023-02-25T03:39:22.079Z,75514.66
2023-02-25T03:41:54.684Z,75526.81
2023-02-25T03:44:37.357Z,75536.94
2023-02-25T03:47:08.066Z,75541.00
2023-02-25T03:49:47.303Z,75551.13
2023-02-25T03:52:19.979Z,75555.19
2023-02-25T03:54:55.130Z,75561.25
2023-02-25T03:57:27.064Z,75565.31
2023-02-25T03:59:56.416Z,75573.41
2023-02-25T04:02:33.370Z,75581.53
2023-02-25T04:05:00.405Z,75603.81
2023-02-25T04:07:28.062Z,75603.81
2023-02-25T04:09:55.636Z,75615.97
2023-02-25T04:12:22.898Z,75624.06
2023-02-25T04:14:49.833Z,75630.16
2023-02-25T04:17:17.224Z,75652.44
2023-02-25T04:19:44.084Z,75652.44
2023-02-25T04:22:11.656Z,75668.66
2023-02-25T04:24:38.808Z,75668.66
2023-02-25T04:27:06.046Z,75680.81
2023-02-25T04:29:32.928Z,75680.81
2023-02-25T04:32:00.364Z,75684.88
2023-02-25T04:34:27.477Z,75697.03
2023-02-25T04:36:54.956Z,75709.19
2023-02-25T04:39:21.870Z,75701.09
2023-02-25T04:41:49.317Z,75692.97
2023-02-25T04:44:16.187Z,75705.13
2023-02-25T04:46:43.830Z,75697.03
2023-02-25T04:49:11.111Z,75705.13
2023-02-25T04:51:39.282Z,75713.25
2023-02-25T04:54:06.455Z,75721.34
2023-02-25T04:56:33.666Z,75725.41
2023-02-25T04:59:00.793Z,75725.41
2023-02-25T05:01:28.692Z,75723.38
2023-02-25T05:03:57.167Z,75713.25
2023-02-25T05:06:25.455Z,75721.34
2023-02-25T05:08:52.644Z,75705.13
2023-02-25T05:11:20.018Z,75705.13
2023-02-25T05:13:47.268Z,75705.13
2023-02-25T05:16:18.866Z,75717.28
2023-02-25T05:18:47.471Z,75709.19
2023-02-25T05:21:20.760Z,75715.28
2023-02-25T05:23:49.291Z,75703.13
2023-02-25T05:26:21.885Z,75699.06
2023-02-25T05:28:54.137Z,75709.19
2023-02-25T05:31:23.126Z,75707.16
2023-02-25T05:33:50.440Z,75709.19
2023-02-25T05:36:17.920Z,75705.13
2023-02-25T05:38:45.679Z,75709.19
2023-02-25T05:41:13.634Z,75717.28
2023-02-25T05:43:41.722Z,75721.34
2023-02-25T05:46:13.227Z,75729.47
2023-02-25T05:48:42.397Z,75721.34
2023-02-25T05:51:15.840Z,75733.50
2023-02-25T05:53:44.801Z,75731.47
2023-02-25T05:56:16.680Z,75719.31
2023-02-25T05:58:44.157Z,75713.25
2023-02-25T06:01:14.309Z,75721.34
2023-02-25T06:03:42.659Z,75729.47
2023-02-25T06:06:14.959Z,75721.34
2023-02-25T06:08:46.032Z,75727.44
2023-02-25T06:11:18.845Z,75713.25
2023-02-25T06:13:48.868Z,75729.47
2023-02-25T06:16:17.279Z,75725.41
2023-02-25T06:18:45.414Z,75717.28
2023-02-25T06:21:14.244Z,75717.28
2023-02-25T06:23:43.124Z,75703.13
2023-02-25T06:26:13.583Z,75697.03
2023-02-25T06:28:40.836Z,75701.09
2023-02-25T06:31:14.076Z,75697.03
2023-02-25T06:33:41.865Z,75695.00
2023-02-25T06:36:09.972Z,75684.88
2023-02-25T06:38:37.865Z,75682.84
2023-02-25T06:41:06.863Z,75672.72
2023-02-25T06:43:33.855Z,75680.81
2023-02-25T06:46:04.789Z,75678.78
2023-02-25T06:48:32.137Z,75664.59
2023-02-25T06:50:59.782Z,75672.72
2023-02-25T06:53:26.925Z,75672.72
2023-02-25T06:55:54.109Z,75684.88
2023-02-25T06:58:21.093Z,75680.81
2023-02-25T07:00:48.241Z,75680.81
2023-02-25T07:03:15.595Z,75680.81
2023-02-25T07:05:43.440Z,75674.75
2023-02-25T07:08:10.344Z,75668.66
2023-02-25T07:10:40.613Z,75662.59
2023-02-25T07:13:09.220Z,75660.56
2023-02-25T07:15:37.080Z,75648.41
2023-02-25T07:18:04.463Z,75648.41
2023-02-25T07:20:31.874Z,75648.41
2023-02-25T07:22:59.812Z,75640.28
2023-02-25T07:25:27.259Z,75646.38
2023-02-25T07:27:54.430Z,75640.28
2023-02-25T07:30:21.875Z,75644.34
2023-02-25T07:32:48.939Z,75634.22
2023-02-25T07:35:16.295Z,75632.19
2023-02-25T07:37:43.221Z,75636.22
2023-02-25T07:40:14.028Z,75630.16
2023-02-25T07:42:41.412Z,75636.22
2023-02-25T07:45:10.309Z,75632.19
2023-02-25T07:47:38.133Z,75628.13
2023-02-25T07:50:07.890Z,75624.06
2023-02-25T07:52:36.729Z,75603.81
2023-02-25T07:55:05.875Z,75587.59
2023-02-25T07:57:32.964Z,75589.63
2023-02-25T08:00:00.208Z,75589.63
2023-02-25T08:02:27.377Z,75587.59
2023-02-25T08:04:54.692Z,75567.34
2023-02-25T08:07:21.599Z,75567.34
2023-02-25T08:09:48.829Z,75567.34
2023-02-25T08:12:15.997Z,75563.28
2023-02-25T08:14:43.466Z,75571.38
2023-02-25T08:17:10.551Z,75571.38
2023-02-25T08:19:37.799Z,75567.34
2023-02-25T08:22:04.829Z,75559.22
2023-02-25T08:24:32.440Z,75567.34
2023-02-25T08:26:59.410Z,75563.28
2023-02-25T08:29:26.627Z,75563.28
2023-02-25T08:31:53.838Z,75549.09
2023-02-25T08:34:21.232Z,75543.00
2023-02-25T08:36:48.132Z,75526.81
2023-02-25T08:39:15.480Z,75510.59
2023-02-25T08:41:44.224Z,75516.66
2023-02-25T08:44:12.157Z,75514.66
2023-02-25T08:46:41.359Z,75494.38
2023-02-25T08:49:10.138Z,75486.28
2023-02-25T08:51:38.571Z,75461.97
2023-02-25T08:54:09.245Z,75453.84
2023-02-25T08:56:37.983Z,75453.84
2023-02-25T08:59:06.178Z,75457.91
2023-02-25T09:01:45.416Z,75461.97
2023-02-25T09:04:22.856Z,75466.00
2023-02-25T09:06:52.786Z,75457.91
2023-02-25T09:09:22.051Z,75482.22
2023-02-25T09:11:50.941Z,75474.13
2023-02-25T09:14:18.723Z,75474.13
2023-02-25T09:16:45.946Z,75470.06
2023-02-25T09:19:15.876Z,75466.00
2023-02-25T09:21:43.147Z,75463.97
2023-02-25T09:24:11.033Z,75455.88
2023-02-25T09:26:38.232Z,75447.78
2023-02-25T09:29:07.084Z,75443.72
2023-02-25T09:31:36.955Z,75429.53
2023-02-25T09:34:07.964Z,75433.59
2023-02-25T09:36:35.535Z,75409.28
2023-02-25T09:39:03.786Z,75389.00
2023-02-25T09:41:47.390Z,75356.59
2023-02-25T09:44:36.205Z,75356.59
2023-02-25T09:47:05.178Z,75340.38
2023-02-25T09:49:46.546Z,75332.28
2023-02-25T09:52:22.685Z,75340.38
2023-02-25T09:54:55.778Z,75332.28
2023-02-25T09:57:23.654Z,75312.00
2023-02-25T09:59:53.712Z,75299.84
2023-02-25T10:02:40.748Z,75342.41
2023-02-25T10:05:44.329Z,75352.53
2023-02-25T10:08:35.360Z,75352.53
2023-02-25T10:11:10.113Z,75380.91
2023-02-25T10:14:10.059Z,75360.63
2023-02-25T10:16:49.122Z,75352.53
2023-02-25T10:19:31.755Z,75342.41
2023-02-25T10:22:19.944Z,75348.47
2023-02-25T10:24:56.821Z,75348.47
2023-02-25T10:27:37.949Z,75348.47
2023-02-25T10:30:28.098Z,75346.44
2023-02-25T10:32:56.187Z,75352.53
2023-02-25T10:35:29.493Z,75356.59
2023-02-25T10:37:57.329Z,75376.84
2023-02-25T10:40:29.399Z,75380.91
2023-02-25T10:43:06.779Z,75431.56
2023-02-25T10:45:34.080Z,75451.81
2023-02-25T10:48:13.725Z,75449.81
2023-02-25T10:50:46.362Z,75461.97
2023-02-25T10:53:18.838Z,75468.03
2023-02-25T10:55:52.822Z,75474.13
2023-02-25T10:58:44.594Z,75461.97
2023-02-25T11:01:21.407Z,75461.97
2023-02-25T11:04:05.796Z,75468.03
2023-02-25T11:06:38.237Z,75474.13
2023-02-25T11:09:27.356Z,75482.22
2023-02-25T11:11:58.975Z,75459.94
2023-02-25T11:14:32.167Z,75468.03
2023-02-25T11:17:14.166Z,75490.31
2023-02-25T11:19:45.869Z,75494.38
2023-02-25T11:22:21.098Z,75510.59
2023-02-25T11:25:02.749Z,75522.75
2023-02-25T11:27:41.754Z,75510.59
2023-02-25T11:30:24.843Z,75502.50
2023-02-25T11:32:58.235Z,75514.66
2023-02-25T11:35:35.704Z,75534.91
2023-02-25T11:38:41.520Z,75506.53
2023-02-25T11:41:18.825Z,75490.31
2023-02-25T11:43:46.073Z,75470.06
2023-02-25T11:46:22.394Z,75453.84
2023-02-25T11:48:53.017Z,75453.84
2023-02-25T11:51:24.417Z,75441.69
2023-02-25T11:54:12.919Z,75407.25
2023-02-25T11:56:48.657Z,75384.97
2023-02-25T11:59:31.000Z,75368.75
2023-02-25T12:02:16.693Z,75352.53
2023-02-25T12:04:56.439Z,75356.59
2023-02-25T12:08:05.141Z,75366.72
2023-02-25T12:11:04.797Z,75393.06
2023-02-25T12:14:06.980Z,75425.47
2023-02-25T12:16:51.280Z,75474.13
2023-02-25T12:19:51.268Z,75530.84
2023-02-25T12:22:57.129Z,75555.19
2023-02-25T12:25:43.647Z,75579.50
2023-02-25T12:28:40.889Z,75571.38
2023-02-25T12:31:36.047Z,75559.22
2023-02-25T12:34:30.849Z,75551.13
2023-02-25T12:37:10.474Z,75555.19
2023-02-25T12:39:59.336Z,75549.09
2023-02-25T12:42:57.240Z,75538.97
2023-02-25T12:46:15.759Z,75524.78
2023-02-25T12:49:04.563Z,75510.59
2023-02-25T12:52:23.699Z,75484.25
2023-02-25T12:55:16.266Z,75461.97
2023-02-25T12:57:50.216Z,75453.84
2023-02-25T13:00:17.775Z,75474.13
2023-02-25T13:03:04.136Z,75551.13
2023-02-25T13:05:55.832Z,75615.97
2023-02-25T13:08:26.706Z,75636.22
2023-02-25T13:11:10.664Z,75668.66
2023-02-25T13:13:46.811Z,75688.94
2023-02-25T13:16:32.040Z,75697.03
2023-02-25T13:19:21.289Z,75692.97
2023-02-25T13:22:05.188Z,75680.81
2023-02-25T13:25:10.486Z,75652.44
2023-02-25T13:28:05.647Z,75628.13
2023-02-25T13:30:36.283Z,75591.66
2023-02-25T13:33:22.754Z,75577.47
2023-02-25T13:36:02.833Z,75543.00
2023-02-25T13:39:07.470Z,75543.00
2023-02-25T13:41:59.187Z,75565.31
2023-02-25T13:44:32.536Z,75575.44
2023-02-25T13:47:15.853Z,75567.34
2023-02-25T13:50:01.928Z,75563.28
2023-02-25T13:52:35.145Z,75547.06
2023-02-25T13:55:41.132Z,75522.75
2023-02-25T13:58:28.978Z,75526.81
2023-02-25T14:01:34.420Z,75541.00
2023-02-25T14:04:19.932Z,75530.84
2023-02-25T14:07:02.338Z,75538.97
2023-02-25T14:09:47.298Z,75555.19
2023-02-25T14:12:24.478Z,75561.25
2023-02-25T14:14:57.320Z,75563.28
2023-02-25T14:17:37.817Z,75579.50
2023-02-25T14:20:25.762Z,75581.53
2023-02-25T14:22:56.792Z,75589.63
2023-02-25T14:25:45.908Z,75587.59
2023-02-25T14:28:37.525Z,75583.53
2023-02-25T14:31:20.423Z,75575.44
2023-02-25T14:34:24.098Z,75583.53
2023-02-25T14:37:00.323Z,75571.38
2023-02-25T14:39:46.447Z,75583.53
2023-02-25T14:42:17.850Z,75609.88
2023-02-25T14:45:05.679Z,75607.88
2023-02-25T14:47:39.041Z,75636.22
2023-02-25T14:50:30.846Z,75640.28
2023-02-25T14:53:17.021Z,75656.50
2023-02-25T14:56:05.698Z,75652.44
2023-02-25T14:58:49.172Z,75660.56
2023-02-25T15:01:55.682Z,75678.78
2023-02-25T15:05:00.913Z,75674.75
2023-02-25T15:07:57.221Z,75674.75
2023-02-25T15:10:48.840Z,75686.91
2023-02-25T15:13:46.539Z,75705.13
2023-02-25T15:16:41.686Z,75721.34
2023-02-25T15:19:42.096Z,75729.47
2023-02-25T15:22:29.407Z,75725.41
2023-02-25T15:25:21.794Z,75749.72
2023-02-25T15:27:56.698Z,75731.47
2023-02-25T15:30:26.829Z,75735.53
2023-02-25T15:32:59.885Z,75749.72
2023-02-25T15:35:36.214Z,75747.69
2023-02-25T15:38:13.602Z,75761.88
2023-02-25T15:40:49.094Z,75753.78
2023-02-25T15:43:16.388Z,75757.81
2023-02-25T15:46:08.194Z,75761.88
2023-02-25T15:48:39.040Z,75765.94
2023-02-25T15:51:12.047Z,75778.09
2023-02-25T15:53:42.519Z,75778.09
2023-02-25T15:56:12.663Z,75778.09
2023-02-25T15:58:51.078Z,75782.16
2023-02-25T16:01:40.235Z,75782.16
2023-02-25T16:04:51.758Z,75790.25
2023-02-25T16:07:28.650Z,75806.47
2023-02-25T16:10:01.372Z,75802.41
2023-02-25T16:12:29.620Z,75794.31
2023-02-25T16:14:58.427Z,75798.38
2023-02-25T16:17:44.439Z,75814.56
2023-02-25T16:20:18.993Z,75822.69
2023-02-25T16:22:48.902Z,75822.69
2023-02-25T16:25:23.968Z,75826.72
2023-02-25T16:28:34.152Z,75834.84
2023-02-25T16:31:10.229Z,75838.91
2023-02-25T16:33:45.288Z,75836.88
2023-02-25T16:36:20.359Z,75844.97
2023-02-25T16:39:00.601Z,75851.06
2023-02-25T16:41:37.612Z,75859.16
2023-02-25T16:44:07.195Z,75861.19
2023-02-25T16:46:37.958Z,75867.28
2023-02-25T16:49:11.263Z,75881.44
2023-02-25T16:51:41.606Z,75887.53
2023-02-25T16:54:23.348Z,75895.66
2023-02-25T16:56:55.568Z,75891.59
2023-02-25T16:59:24.191Z,75893.63
2023-02-25T17:01:57.718Z,75879.44
2023-02-25T17:04:30.800Z,75889.56
2023-02-25T17:07:23.175Z,75891.59
2023-02-25T17:10:03.005Z,75895.66
2023-02-25T17:12:37.517Z,75891.59
2023-02-25T17:15:14.301Z,75899.69
2023-02-25T17:17:44.650Z,75907.81
2023-02-25T17:20:19.446Z,75928.06
2023-02-25T17:22:46.908Z,75907.81
2023-02-25T17:25:16.302Z,75915.91
2023-02-25T17:27:45.558Z,75919.97
2023-02-25T17:30:42.612Z,75932.13
2023-02-25T17:33:29.919Z,75940.22
2023-02-25T17:36:03.262Z,75952.38
2023-02-25T17:38:30.715Z,75952.38
2023-02-25T17:40:59.334Z,75952.38
2023-02-25T17:43:35.529Z,75968.59
2023-02-25T17:46:13.507Z,75972.66
2023-02-25T17:48:43.504Z,75974.69
2023-02-25T17:51:11.450Z,75974.69
2023-02-25T17:53:50.591Z,75976.72
2023-02-25T17:56:25.373Z,75978.75
2023-02-25T17:58:58.815Z,75978.75
2023-02-25T18:01:30.910Z,75972.66
2023-02-25T18:04:05.444Z,75968.59
2023-02-25T18:06:44.853Z,75964.56
2023-02-25T18:09:46.690Z,75986.84
2023-02-25T18:12:21.344Z,75972.66
2023-02-25T18:14:54.063Z,75972.66
2023-02-25T18:17:34.508Z,75976.72
2023-02-25T18:20:06.002Z,75988.88
2023-02-25T18:22:48.271Z,75992.94
2023-02-25T18:25:36.642Z,76001.03
2023-02-25T18:28:06.892Z,76001.03
2023-02-25T18:30:34.294Z,76001.03
2023-02-25T18:33:01.629Z,76005.09
2023-02-25T18:35:31.289Z,76005.09
2023-02-25T18:37:59.746Z,76009.13
2023-02-25T18:40:40.630Z,76013.19
2023-02-25T18:43:19.656Z,76009.13
2023-02-25T18:45:47.711Z,76025.34
2023-02-25T18:48:15.688Z,76033.47
2023-02-25T18:50:44.708Z,76033.47
2023-02-25T18:53:19.588Z,76033.47
2023-02-25T18:55:46.975Z,76045.63
2023-02-25T18:58:17.059Z,76045.63
2023-02-25T19:00:47.360Z,76037.50
2023-02-25T19:03:19.244Z,76041.56
2023-02-25T19:05:46.323Z,76037.50
2023-02-25T19:08:16.001Z,76041.56
2023-02-25T19:10:44.745Z,76041.56
2023-02-25T19:13:27.599Z,76043.59
2023-02-25T19:15:55.598Z,76033.47
2023-02-25T19:18:23.092Z,76037.50
2023-02-25T19:20:50.739Z,76035.47
2023-02-25T19:23:18.540Z,76037.50
2023-02-25T19:25:47.705Z,76041.56
2023-02-25T19:28:14.778Z,76041.56
2023-02-25T19:30:43.609Z,76045.63
2023-02-25T19:33:12.514Z,76037.50
2023-02-25T19:35:42.555Z,76045.63
2023-02-25T19:38:14.469Z,76057.78
2023-02-25T19:40:42.840Z,76069.94
2023-02-25T19:43:11.478Z,76065.88
2023-02-25T19:45:40.869Z,76065.88
2023-02-25T19:48:08.870Z,76086.16
2023-02-25T19:50:37.126Z,76090.22
2023-02-25T19:53:05.629Z,76106.41
2023-02-25T19:55:33.750Z,76114.53
2023-02-25T19:58:00.612Z,76116.56
2023-02-25T20:00:28.137Z,76134.78
2023-02-25T20:02:56.275Z,76138.84
2023-02-25T20:05:24.849Z,76130.75
2023-02-25T20:07:52.546Z,76142.91
2023-02-25T20:10:21.849Z,76142.91
2023-02-25T20:12:48.807Z,76153.03
2023-02-25T20:15:17.350Z,76155.06
2023-02-25T20:17:45.455Z,76167.22
2023-02-25T20:20:14.387Z,76173.31
2023-02-25T20:22:41.835Z,76171.28
2023-02-25T20:25:10.558Z,76183.44
2023-02-25T20:27:39.749Z,76181.41
2023-02-25T20:30:08.172Z,76185.47
2023-02-25T20:32:35.295Z,76181.41
2023-02-25T20:35:03.404Z,76183.44
2023-02-25T20:37:35.782Z,76199.66
2023-02-25T20:40:08.099Z,76203.72
2023-02-25T20:42:35.569Z,76199.66
2023-02-25T20:45:03.258Z,76240.19
2023-02-25T20:47:35.496Z,76199.66
2023-02-25T20:50:05.653Z,76215.88
2023-02-25T20:52:32.834Z,76215.88
2023-02-25T20:55:00.952Z,76228.03
2023-02-25T20:57:28.077Z,76228.03
2023-02-25T20:59:55.316Z,76244.25
2023-02-25T21:02:23.247Z,76248.31
2023-02-25T21:04:51.987Z,76268.56
2023-02-25T21:07:18.986Z,76272.63
2023-02-25T21:09:47.418Z,76280.72
2023-02-25T21:12:14.337Z,76288.84
2023-02-25T21:14:41.957Z,76301.00
2023-02-25T21:17:13.897Z,76305.06
2023-02-25T21:19:41.698Z,76305.06
2023-02-25T21:22:08.705Z,76323.31
2023-02-25T21:24:36.738Z,76321.28
2023-02-25T21:27:04.218Z,76325.31
2023-02-25T21:29:32.506Z,76337.50
2023-02-25T21:31:59.814Z,76337.50
2023-02-25T21:34:27.227Z,76341.53
2023-02-25T21:36:57.459Z,76341.53
2023-02-25T21:39:25.884Z,76345.59
2023-02-25T21:41:53.052Z,76349.66
2023-02-25T21:44:20.683Z,76349.66
2023-02-25T21:46:47.868Z,76345.59
2023-02-25T21:49:15.475Z,76357.75
2023-02-25T21:51:42.373Z,76355.72
2023-02-25T21:54:09.737Z,76386.13
2023-02-25T21:56:36.980Z,76382.09
2023-02-25T21:59:05.662Z,76394.25
2023-02-25T22:01:35.797Z,76402.34
2023-02-25T22:04:04.751Z,76410.47
2023-02-25T22:06:31.895Z,76408.44
2023-02-25T22:08:59.955Z,76410.47
2023-02-25T22:11:33.865Z,76418.56
2023-02-25T22:14:03.042Z,76418.56
2023-02-25T22:16:30.101Z,76414.50
2023-02-25T22:18:57.729Z,76410.47
2023-02-25T22:21:27.769Z,76418.56
2023-02-25T22:23:58.872Z,76418.56
2023-02-25T22:26:29.202Z,76414.50
2023-02-25T22:28:59.707Z,76430.72
2023-02-25T22:31:27.706Z,76434.78
2023-02-25T22:33:56.402Z,76442.91
2023-02-25T22:36:24.126Z,76451.00
2023-02-25T22:38:52.374Z,76463.16
2023-02-25T22:41:26.770Z,76461.13
2023-02-25T22:43:55.151Z,76471.28
2023-02-25T22:46:26.143Z,76475.31
2023-02-25T22:48:54.534Z,76483.44
2023-02-25T22:51:26.893Z,76495.59
2023-02-25T22:53:55.554Z,76495.59
2023-02-25T22:56:23.718Z,76519.91
2023-02-25T22:58:52.340Z,76515.88
2023-02-25T23:01:21.819Z,76515.88
2023-02-25T23:03:50.553Z,76519.91
2023-02-25T23:06:19.081Z,76526.00
2023-02-25T23:08:47.160Z,76530.06
2023-02-25T23:11:19.292Z,76538.16
2023-02-25T23:13:49.018Z,76548.31
2023-02-25T23:16:18.492Z,76548.31
2023-02-25T23:18:47.690Z,76552.34
2023-02-25T23:21:22.119Z,76560.47
2023-02-25T23:23:52.235Z,76560.47
2023-02-25T23:26:23.124Z,76562.50
2023-02-25T23:28:58.844Z,76564.50
2023-02-25T23:31:37.795Z,76572.63
2023-02-25T23:34:18.289Z,76576.69
2023-02-25T23:36:45.664Z,76592.91
2023-02-25T23:39:13.977Z,76605.06
2023-02-25T23:41:41.714Z,76605.06
2023-02-25T23:44:09.639Z,76637.50
2023-02-25T23:46:37.470Z,76621.28
2023-02-25T23:49:07.401Z,76643.56
2023-02-25T23:51:36.260Z,76641.53
2023-02-25T23:54:06.218Z,76637.50
2023-02-25T23:56:35.251Z,76633.44
2023-02-25T23:59:02.928Z,76641.53
